sensor_id;sensor_type;location;lat;lon;timestamp;pressure;altitude;pressure_sealevel;temperature
24740;BMP280;45234;48.148;17.128;2023-08-21T00:00:48;100473.16;;;25.61
24740;BMP280;45234;48.148;17.128;2023-08-21T00:03:15;100468.44;;;25.58
24740;BMP280;45234;48.148;17.128;2023-08-21T00:05:42;100479.63;;;25.55
24740;BMP280;45234;48.148;17.128;2023-08-21T00:08:09;100474.31;;;25.55
24740;BMP280;45234;48.148;17.128;2023-08-21T00:10:38;100468.00;;;25.51
24740;BMP280;45234;48.148;17.128;2023-08-21T00:13:05;100472.25;;;25.52
24740;BMP280;45234;48.148;17.128;2023-08-21T00:15:32;100472.25;;;25.52
24740;BMP280;45234;48.148;17.128;2023-08-21T00:17:59;100477.25;;;25.53
24740;BMP280;45234;48.148;17.128;2023-08-21T00:20:27;100479.63;;;25.55
24740;BMP280;45234;48.148;17.128;2023-08-21T00:22:54;100467.41;;;25.54
24740;BMP280;45234;48.148;17.128;2023-08-21T00:25:22;100465.94;;;25.48
24740;BMP280;45234;48.148;17.128;2023-08-21T00:27:49;100476.84;;;25.46
24740;BMP280;45234;48.148;17.128;2023-08-21T00:30:16;100467.84;;;25.42
24740;BMP280;45234;48.148;17.128;2023-08-21T00:32:43;100470.81;;;25.40
24740;BMP280;45234;48.148;17.128;2023-08-21T00:35:10;100474.03;;;25.37
24740;BMP280;45234;48.148;17.128;2023-08-21T00:37:37;100473.53;;;25.35
24740;BMP280;45234;48.148;17.128;2023-08-21T00:40:05;100484.22;;;25.30
24740;BMP280;45234;48.148;17.128;2023-08-21T00:42:32;100474.66;;;25.29
24740;BMP280;45234;48.148;17.128;2023-08-21T00:44:59;100476.31;;;25.25
24740;BMP280;45234;48.148;17.128;2023-08-21T00:47:26;100474.75;;;25.24
24740;BMP280;45234;48.148;17.128;2023-08-21T00:49:57;100480.09;;;25.19
24740;BMP280;45234;48.148;17.128;2023-08-21T00:52:25;100478.25;;;25.20
24740;BMP280;45234;48.148;17.128;2023-08-21T00:54:52;100480.69;;;25.16
24740;BMP280;45234;48.148;17.128;2023-08-21T00:57:20;100478.06;;;25.11
24740;BMP280;45234;48.148;17.128;2023-08-21T00:59:47;100478.66;;;25.08
24740;BMP280;45234;48.148;17.128;2023-08-21T01:02:15;100473.66;;;25.07
24740;BMP280;45234;48.148;17.128;2023-08-21T01:04:42;100476.31;;;25.02
24740;BMP280;45234;48.148;17.128;2023-08-21T01:07:09;100470.81;;;24.98
24740;BMP280;45234;48.148;17.128;2023-08-21T01:15:10;100482.81;;;24.90
24740;BMP280;45234;48.148;17.128;2023-08-21T01:17:37;100479.47;;;24.85
24740;BMP280;45234;48.148;17.128;2023-08-21T01:20:07;100480.84;;;24.77
24740;BMP280;45234;48.148;17.128;2023-08-21T01:22:39;100472.19;;;24.72
24740;BMP280;45234;48.148;17.128;2023-08-21T01:25:08;100473.25;;;24.71
24740;BMP280;45234;48.148;17.128;2023-08-21T01:27:41;100473.25;;;24.71
24740;BMP280;45234;48.148;17.128;2023-08-21T01:30:09;100481.75;;;24.68
24740;BMP280;45234;48.148;17.128;2023-08-21T01:35:20;100478.69;;;24.55
24740;BMP280;45234;48.148;17.128;2023-08-21T01:37:50;100467.03;;;24.57
24740;BMP280;45234;48.148;17.128;2023-08-21T01:40:23;100466.00;;;24.52
24740;BMP280;45234;48.148;17.128;2023-08-21T01:42:53;100464.94;;;24.53
24740;BMP280;45234;48.148;17.128;2023-08-21T01:45:21;100473.97;;;24.52
24740;BMP280;45234;48.148;17.128;2023-08-21T01:47:50;100467.09;;;24.51
24740;BMP280;45234;48.148;17.128;2023-08-21T01:50:17;100458.63;;;24.49
24740;BMP280;45234;48.148;17.128;2023-08-21T01:52:44;100462.88;;;24.50
24740;BMP280;45234;48.148;17.128;2023-08-21T01:55:11;100461.56;;;24.48
24740;BMP280;45234;48.148;17.128;2023-08-21T01:57:39;100459.44;;;24.50
24740;BMP280;45234;48.148;17.128;2023-08-21T02:00:06;100466.31;;;24.51
24740;BMP280;45234;48.148;17.128;2023-08-21T02:02:40;100463.94;;;24.49
24740;BMP280;45234;48.148;17.128;2023-08-21T02:05:08;100468.72;;;24.47
24740;BMP280;45234;48.148;17.128;2023-08-21T02:07:35;100460.53;;;24.44
24740;BMP280;45234;48.148;17.128;2023-08-21T02:10:02;100462.69;;;24.42
24740;BMP280;45234;48.148;17.128;2023-08-21T02:12:29;100467.22;;;24.36
24740;BMP280;45234;48.148;17.128;2023-08-21T02:14:56;100455.91;;;24.31
24740;BMP280;45234;48.148;17.128;2023-08-21T02:17:26;100457.78;;;24.25
24740;BMP280;45234;48.148;17.128;2023-08-21T02:19:53;100454.88;;;24.27
24740;BMP280;45234;48.148;17.128;2023-08-21T02:22:20;100453.78;;;24.28
24740;BMP280;45234;48.148;17.128;2023-08-21T02:24:48;100450.09;;;24.24
24740;BMP280;45234;48.148;17.128;2023-08-21T02:27:15;100448.56;;;24.23
24740;BMP280;45234;48.148;17.128;2023-08-21T02:29:41;100458.94;;;24.19
24740;BMP280;45234;48.148;17.128;2023-08-21T02:32:08;100453.38;;;24.16
24740;BMP280;45234;48.148;17.128;2023-08-21T02:34:35;100440.75;;;24.07
24740;BMP280;45234;48.148;17.128;2023-08-21T02:37:02;100447.63;;;24.08
24740;BMP280;45234;48.148;17.128;2023-08-21T02:39:29;100442.06;;;24.05
24740;BMP280;45234;48.148;17.128;2023-08-21T02:41:56;100441.06;;;24.01
24740;BMP280;45234;48.148;17.128;2023-08-21T02:44:23;100440.56;;;23.94
24740;BMP280;45234;48.148;17.128;2023-08-21T02:46:50;100446.22;;;23.87
24740;BMP280;45234;48.148;17.128;2023-08-21T02:49:17;100444.84;;;23.85
24740;BMP280;45234;48.148;17.128;2023-08-21T02:51:44;100451.78;;;23.81
24740;BMP280;45234;48.148;17.128;2023-08-21T02:54:11;100447.28;;;23.81
24740;BMP280;45234;48.148;17.128;2023-08-21T02:56:38;100456.31;;;23.80
24740;BMP280;45234;48.148;17.128;2023-08-21T02:59:05;100452.88;;;23.80
24740;BMP280;45234;48.148;17.128;2023-08-21T03:01:32;100464.53;;;23.79
24740;BMP280;45234;48.148;17.128;2023-08-21T03:03:59;100462.44;;;23.76
24740;BMP280;45234;48.148;17.128;2023-08-21T03:06:26;100462.44;;;23.76
24740;BMP280;45234;48.148;17.128;2023-08-21T03:08:53;100464.25;;;23.75
24740;BMP280;45234;48.148;17.128;2023-08-21T03:11:20;100461.38;;;23.77
24740;BMP280;45234;48.148;17.128;2023-08-21T03:13:47;100457.63;;;23.78
24740;BMP280;45234;48.148;17.128;2023-08-21T03:16:14;100461.38;;;23.77
24740;BMP280;45234;48.148;17.128;2023-08-21T03:18:57;100469.34;;;23.66
24740;BMP280;45234;48.148;17.128;2023-08-21T03:21:26;100473.56;;;23.73
24740;BMP280;45234;48.148;17.128;2023-08-21T03:23:58;100464.84;;;23.67
24740;BMP280;45234;48.148;17.128;2023-08-21T03:26:30;100467.72;;;23.70
24740;BMP280;45234;48.148;17.128;2023-08-21T03:28:57;100460.09;;;23.69
24740;BMP280;45234;48.148;17.128;2023-08-21T03:31:24;100470.69;;;23.69
24740;BMP280;45234;48.148;17.128;2023-08-21T03:33:51;100460.88;;;23.64
24740;BMP280;45234;48.148;17.128;2023-08-21T03:36:20;100461.94;;;23.63
24740;BMP280;45234;48.148;17.128;2023-08-21T03:38:47;100469.88;;;23.63
24740;BMP280;45234;48.148;17.128;2023-08-21T03:41:14;100467.81;;;23.60
24740;BMP280;45234;48.148;17.128;2023-08-21T03:43:41;100470.19;;;23.62
24740;BMP280;45234;48.148;17.128;2023-08-21T03:46:08;100469.94;;;23.58
24740;BMP280;45234;48.148;17.128;2023-08-21T03:48:35;100471.28;;;23.56
24740;BMP280;45234;48.148;17.128;2023-08-21T03:51:02;100469.41;;;23.56
24740;BMP280;45234;48.148;17.128;2023-08-21T03:53:30;100471.56;;;23.54
24740;BMP280;45234;48.148;17.128;2023-08-21T03:55:59;100468.91;;;23.54
24740;BMP280;45234;48.148;17.128;2023-08-21T03:58:26;100474.22;;;23.54
24740;BMP280;45234;48.148;17.128;2023-08-21T04:00:54;100478.16;;;23.52
24740;BMP280;45234;48.148;17.128;2023-08-21T04:03:21;100481.59;;;23.52
24740;BMP280;45234;48.148;17.128;2023-08-21T04:05:48;100491.16;;;23.48
24740;BMP280;45234;48.148;17.128;2023-08-21T04:08:16;100488.50;;;23.48
24740;BMP280;45234;48.148;17.128;2023-08-21T04:10:43;100490.63;;;23.51
24740;BMP280;45234;48.148;17.128;2023-08-21T04:13:11;100491.69;;;23.50
24740;BMP280;45234;48.148;17.128;2023-08-21T04:15:38;100488.75;;;23.52
24740;BMP280;45234;48.148;17.128;2023-08-21T04:18:05;100501.22;;;23.51
24740;BMP280;45234;48.148;17.128;2023-08-21T04:20:32;100497.47;;;23.52
24740;BMP280;45234;48.148;17.128;2023-08-21T04:22:59;100501.72;;;23.53
24740;BMP280;45234;48.148;17.128;2023-08-21T04:25:26;100508.31;;;23.56
24740;BMP280;45234;48.148;17.128;2023-08-21T04:27:56;100508.56;;;23.59
24740;BMP280;45234;48.148;17.128;2023-08-21T04:30:23;100510.38;;;23.64
24740;BMP280;45234;48.148;17.128;2023-08-21T04:32:50;100516.47;;;23.69
24740;BMP280;45234;48.148;17.128;2023-08-21T04:35:19;100505.31;;;23.73
24740;BMP280;45234;48.148;17.128;2023-08-21T04:37:49;100514.81;;;23.74
24740;BMP280;45234;48.148;17.128;2023-08-21T04:40:18;100509.53;;;23.79
24740;BMP280;45234;48.148;17.128;2023-08-21T04:42:48;100510.03;;;23.81
24740;BMP280;45234;48.148;17.128;2023-08-21T04:45:16;100512.41;;;23.82
24740;BMP280;45234;48.148;17.128;2023-08-21T04:47:43;100508.97;;;23.87
24740;BMP280;45234;48.148;17.128;2023-08-21T04:50:11;100521.06;;;23.93
24740;BMP280;45234;48.148;17.128;2023-08-21T04:52:38;100512.34;;;23.97
24740;BMP280;45234;48.148;17.128;2023-08-21T04:55:06;100517.84;;;24.01
24740;BMP280;45234;48.148;17.128;2023-08-21T04:57:34;100510.94;;;24.05
24740;BMP280;45234;48.148;17.128;2023-08-21T05:00:05;100515.13;;;24.11
24740;BMP280;45234;48.148;17.128;2023-08-21T05:02:37;100521.72;;;24.19
24740;BMP280;45234;48.148;17.128;2023-08-21T05:05:05;100519.22;;;24.27
24740;BMP280;45234;48.148;17.128;2023-08-21T05:07:32;100518.16;;;24.33
24740;BMP280;45234;48.148;17.128;2023-08-21T05:10:01;100517.84;;;24.40
24740;BMP280;45234;48.148;17.128;2023-08-21T05:12:32;100519.59;;;24.49
24740;BMP280;45234;48.148;17.128;2023-08-21T05:14:59;100520.03;;;24.57
24740;BMP280;45234;48.148;17.128;2023-08-21T05:17:30;100522.31;;;24.68
24740;BMP280;45234;48.148;17.128;2023-08-21T05:19:57;100525.66;;;24.79
24740;BMP280;45234;48.148;17.128;2023-08-21T05:22:24;100524.50;;;24.90
24740;BMP280;45234;48.148;17.128;2023-08-21T05:24:52;100528.34;;;25.03
24740;BMP280;45234;48.148;17.128;2023-08-21T05:27:19;100530.03;;;25.17
24740;BMP280;45234;48.148;17.128;2023-08-21T05:29:46;100528.22;;;25.31
24740;BMP280;45234;48.148;17.128;2023-08-21T05:32:13;100534.16;;;25.47
24740;BMP280;45234;48.148;17.128;2023-08-21T05:34:41;100531.56;;;25.61
24740;BMP280;45234;48.148;17.128;2023-08-21T05:37:08;100530.28;;;25.77
24740;BMP280;45234;48.148;17.128;2023-08-21T05:39:35;100528.75;;;25.90
24740;BMP280;45234;48.148;17.128;2023-08-21T05:42:01;100529.88;;;26.02
24740;BMP280;45234;48.148;17.128;2023-08-21T05:44:28;100533.69;;;26.28
24740;BMP280;45234;48.148;17.128;2023-08-21T05:46:56;100530.94;;;26.66
24740;BMP280;45234;48.148;17.128;2023-08-21T05:49:23;100531.03;;;26.88
24740;BMP280;45234;48.148;17.128;2023-08-21T05:51:50;100538.41;;;26.91
24740;BMP280;45234;48.148;17.128;2023-08-21T05:54:17;100529.34;;;27.06
24740;BMP280;45234;48.148;17.128;2023-08-21T05:56:46;100541.34;;;27.31
24740;BMP280;45234;48.148;17.128;2023-08-21T05:59:27;100536.47;;;27.91
24740;BMP280;45234;48.148;17.128;2023-08-21T06:01:59;100536.34;;;29.57
24740;BMP280;45234;48.148;17.128;2023-08-21T06:04:27;100538.53;;;31.07
24740;BMP280;45234;48.148;17.128;2023-08-21T06:07:09;100549.41;;;32.49
24740;BMP280;45234;48.148;17.128;2023-08-21T06:09:37;100548.38;;;33.17
24740;BMP280;45234;48.148;17.128;2023-08-21T06:12:08;100549.09;;;33.30
24740;BMP280;45234;48.148;17.128;2023-08-21T06:14:38;100548.94;;;33.38
24740;BMP280;45234;48.148;17.128;2023-08-21T06:17:06;100552.63;;;33.93
24740;BMP280;45234;48.148;17.128;2023-08-21T06:19:33;100549.84;;;34.75
24740;BMP280;45234;48.148;17.128;2023-08-21T06:22:00;100560.00;;;35.46
24740;BMP280;45234;48.148;17.128;2023-08-21T06:24:28;100551.59;;;36.26
24740;BMP280;45234;48.148;17.128;2023-08-21T06:27:00;100564.03;;;36.97
24740;BMP280;45234;48.148;17.128;2023-08-21T06:29:27;100556.91;;;36.82
24740;BMP280;45234;48.148;17.128;2023-08-21T06:31:54;100564.47;;;36.36
24740;BMP280;45234;48.148;17.128;2023-08-21T06:34:22;100555.56;;;35.80
24740;BMP280;45234;48.148;17.128;2023-08-21T06:36:53;100552.38;;;35.74
24740;BMP280;45234;48.148;17.128;2023-08-21T06:39:20;100552.63;;;35.43
24740;BMP280;45234;48.148;17.128;2023-08-21T06:41:49;100548.13;;;35.73
24740;BMP280;45234;48.148;17.128;2023-08-21T06:44:18;100551.25;;;36.28
24740;BMP280;45234;48.148;17.128;2023-08-21T06:46:45;100560.63;;;36.67
24740;BMP280;45234;48.148;17.128;2023-08-21T06:49:13;100557.59;;;36.42
24740;BMP280;45234;48.148;17.128;2023-08-21T06:51:40;100558.91;;;35.99
24740;BMP280;45234;48.148;17.128;2023-08-21T06:54:07;100549.31;;;35.76
24740;BMP280;45234;48.148;17.128;2023-08-21T06:56:33;100556.22;;;35.73
24740;BMP280;45234;48.148;17.128;2023-08-21T06:59:00;100552.78;;;36.29
24740;BMP280;45234;48.148;17.128;2023-08-21T07:01:29;100554.81;;;37.02
24740;BMP280;45234;48.148;17.128;2023-08-21T07:03:56;100560.84;;;37.76
24740;BMP280;45234;48.148;17.128;2023-08-21T07:06:23;100554.25;;;37.73
24740;BMP280;45234;48.148;17.128;2023-08-21T07:08:50;100562.34;;;37.26
24740;BMP280;45234;48.148;17.128;2023-08-21T07:11:17;100562.78;;;36.91
24740;BMP280;45234;48.148;17.128;2023-08-21T07:13:44;100569.13;;;36.73
24740;BMP280;45234;48.148;17.128;2023-08-21T07:16:10;100565.19;;;36.63
24740;BMP280;45234;48.148;17.128;2023-08-21T07:18:39;100573.78;;;36.13
24740;BMP280;45234;48.148;17.128;2023-08-21T07:21:06;100576.78;;;35.36
24740;BMP280;45234;48.148;17.128;2023-08-21T07:23:52;100570.88;;;34.34
24740;BMP280;45234;48.148;17.128;2023-08-21T07:26:19;100573.50;;;34.31
24740;BMP280;45234;48.148;17.128;2023-08-21T07:28:46;100570.16;;;34.53
24740;BMP280;45234;48.148;17.128;2023-08-21T07:31:13;100565.75;;;35.03
24740;BMP280;45234;48.148;17.128;2023-08-21T07:33:40;100564.75;;;35.53
24740;BMP280;45234;48.148;17.128;2023-08-21T07:36:07;100575.06;;;35.96
24740;BMP280;45234;48.148;17.128;2023-08-21T07:38:34;100572.97;;;36.09
24740;BMP280;45234;48.148;17.128;2023-08-21T07:41:06;100578.06;;;36.14
24740;BMP280;45234;48.148;17.128;2023-08-21T07:43:34;100573.47;;;36.44
24740;BMP280;45234;48.148;17.128;2023-08-21T07:46:05;100576.06;;;36.11
24740;BMP280;45234;48.148;17.128;2023-08-21T07:48:32;100571.56;;;36.18
24740;BMP280;45234;48.148;17.128;2023-08-21T07:50:59;100579.72;;;36.22
24740;BMP280;45234;48.148;17.128;2023-08-21T07:53:26;100571.16;;;36.20
24740;BMP280;45234;48.148;17.128;2023-08-21T07:55:53;100578.69;;;36.33
24740;BMP280;45234;48.148;17.128;2023-08-21T07:58:20;100582.69;;;36.43
24740;BMP280;45234;48.148;17.128;2023-08-21T08:00:47;100577.69;;;36.15
24740;BMP280;45234;48.148;17.128;2023-08-21T08:03:15;100575.16;;;36.29
24740;BMP280;45234;48.148;17.128;2023-08-21T08:05:42;100572.88;;;36.61
24740;BMP280;45234;48.148;17.128;2023-08-21T08:08:20;100579.53;;;36.67
24740;BMP280;45234;48.148;17.128;2023-08-21T08:10:47;100577.69;;;36.75
24740;BMP280;45234;48.148;17.128;2023-08-21T08:13:14;100574.63;;;36.80
24740;BMP280;45234;48.148;17.128;2023-08-21T08:15:41;100582.00;;;36.83
24740;BMP280;45234;48.148;17.128;2023-08-21T08:18:12;100573.78;;;36.72
24740;BMP280;45234;48.148;17.128;2023-08-21T08:20:40;100577.31;;;36.76
24740;BMP280;45234;48.148;17.128;2023-08-21T08:23:07;100582.97;;;37.01
24740;BMP280;45234;48.148;17.128;2023-08-21T08:25:34;100575.56;;;36.94
24740;BMP280;45234;48.148;17.128;2023-08-21T08:28:00;100580.03;;;36.76
24740;BMP280;45234;48.148;17.128;2023-08-21T08:30:27;100579.28;;;36.79
24740;BMP280;45234;48.148;17.128;2023-08-21T08:32:55;100584.22;;;36.74
24740;BMP280;45234;48.148;17.128;2023-08-21T08:35:22;100574.63;;;36.76
24740;BMP280;45234;48.148;17.128;2023-08-21T08:37:49;100573.13;;;36.82
24740;BMP280;45234;48.148;17.128;2023-08-21T08:40:16;100570.84;;;36.84
24740;BMP280;45234;48.148;17.128;2023-08-21T08:42:43;100571.19;;;36.83
24740;BMP280;45234;48.148;17.128;2023-08-21T08:45:13;100572.16;;;36.64
24740;BMP280;45234;48.148;17.128;2023-08-21T08:47:42;100573.63;;;36.58
24740;BMP280;45234;48.148;17.128;2023-08-21T08:50:11;100576.66;;;36.53
24740;BMP280;45234;48.148;17.128;2023-08-21T08:52:39;100573.16;;;36.23
24740;BMP280;45234;48.148;17.128;2023-08-21T08:55:07;100570.09;;;36.24
24740;BMP280;45234;48.148;17.128;2023-08-21T08:57:35;100571.59;;;36.22
24740;BMP280;45234;48.148;17.128;2023-08-21T09:00:03;100567.66;;;36.16
24740;BMP280;45234;48.148;17.128;2023-08-21T09:02:35;100576.06;;;36.11
24740;BMP280;45234;48.148;17.128;2023-08-21T09:05:03;100560.59;;;36.08
24740;BMP280;45234;48.148;17.128;2023-08-21T09:07:32;100562.66;;;36.18
24740;BMP280;45234;48.148;17.128;2023-08-21T09:09:59;100562.38;;;36.23
24740;BMP280;45234;48.148;17.128;2023-08-21T09:12:32;100557.28;;;36.18
24740;BMP280;45234;48.148;17.128;2023-08-21T09:15:00;100564.63;;;36.21
24740;BMP280;45234;48.148;17.128;2023-08-21T09:17:27;100559.66;;;36.23
24740;BMP280;45234;48.148;17.128;2023-08-21T09:19:55;100559.06;;;36.10
24740;BMP280;45234;48.148;17.128;2023-08-21T09:22:31;100554.88;;;35.86
24740;BMP280;45234;48.148;17.128;2023-08-21T09:25:01;100551.25;;;35.75
24740;BMP280;45234;48.148;17.128;2023-08-21T09:27:34;100544.09;;;35.86
24740;BMP280;45234;48.148;17.128;2023-08-21T09:30:09;100552.31;;;35.93
24740;BMP280;45234;48.148;17.128;2023-08-21T09:32:55;100536.00;;;35.86
24740;BMP280;45234;48.148;17.128;2023-08-21T09:35:24;100545.41;;;35.99
24740;BMP280;45234;48.148;17.128;2023-08-21T09:37:50;100536.28;;;36.08
24740;BMP280;45234;48.148;17.128;2023-08-21T09:40:21;100535.56;;;36.11
24740;BMP280;45234;48.148;17.128;2023-08-21T09:42:52;100538.06;;;35.96
24740;BMP280;45234;48.148;17.128;2023-08-21T09:45:24;100527.91;;;35.86
24740;BMP280;45234;48.148;17.128;2023-08-21T09:47:54;100531.59;;;35.78
24740;BMP280;45234;48.148;17.128;2023-08-21T09:50:22;100516.97;;;35.53
24740;BMP280;45234;48.148;17.128;2023-08-21T09:52:49;100530.06;;;35.51
24740;BMP280;45234;48.148;17.128;2023-08-21T09:55:36;100516.44;;;35.44
24740;BMP280;45234;48.148;17.128;2023-08-21T09:58:05;100517.84;;;35.34
24740;BMP280;45234;48.148;17.128;2023-08-21T10:00:35;100520.28;;;35.43
24740;BMP280;45234;48.148;17.128;2023-08-21T10:03:04;100523.53;;;35.29
24740;BMP280;45234;48.148;17.128;2023-08-21T10:05:36;100523.63;;;35.14
24740;BMP280;45234;48.148;17.128;2023-08-21T10:08:06;100505.00;;;34.86
24740;BMP280;45234;48.148;17.128;2023-08-21T10:10:37;100514.94;;;34.63
24740;BMP280;45234;48.148;17.128;2023-08-21T10:13:05;100515.97;;;34.39
24740;BMP280;45234;48.148;17.128;2023-08-21T10:15:34;100513.94;;;34.17
24740;BMP280;45234;48.148;17.128;2023-08-21T10:20:49;100507.16;;;33.88
24740;BMP280;45234;48.148;17.128;2023-08-21T10:23:29;100497.53;;;33.71
24740;BMP280;45234;48.148;17.128;2023-08-21T10:25:57;100504.78;;;33.86
24740;BMP280;45234;48.148;17.128;2023-08-21T10:28:58;100497.53;;;33.71
24740;BMP280;45234;48.148;17.128;2023-08-21T10:31:30;100493.09;;;33.79
24740;BMP280;45234;48.148;17.128;2023-08-21T10:33:58;100494.91;;;33.28
24740;BMP280;45234;48.148;17.128;2023-08-21T10:39:12;100496.50;;;33.60
24740;BMP280;45234;48.148;17.128;2023-08-21T10:41:39;100490.50;;;33.67
24740;BMP280;45234;48.148;17.128;2023-08-21T10:44:06;100496.50;;;33.60
24740;BMP280;45234;48.148;17.128;2023-08-21T10:46:51;100482.97;;;33.41
24740;BMP280;45234;48.148;17.128;2023-08-21T10:49:18;100488.50;;;33.48
24740;BMP280;45234;48.148;17.128;2023-08-21T10:51:45;100492.34;;;33.47
24740;BMP280;45234;48.148;17.128;2023-08-21T10:54:13;100485.28;;;33.42
24740;BMP280;45234;48.148;17.128;2023-08-21T10:56:40;100492.91;;;33.40
24740;BMP280;45234;48.148;17.128;2023-08-21T10:59:07;100477.81;;;33.36
24740;BMP280;45234;48.148;17.128;2023-08-21T11:01:46;100483.09;;;33.32
24740;BMP280;45234;48.148;17.128;2023-08-21T11:04:13;100480.13;;;33.50
24740;BMP280;45234;48.148;17.128;2023-08-21T11:06:40;100475.66;;;33.57
24740;BMP280;45234;48.148;17.128;2023-08-21T11:09:13;100472.53;;;33.55
24740;BMP280;45234;48.148;17.128;2023-08-21T11:11:40;100482.44;;;33.67
24740;BMP280;45234;48.148;17.128;2023-08-21T11:14:06;100475.66;;;33.57
24740;BMP280;45234;48.148;17.128;2023-08-21T11:16:33;100471.16;;;33.61
24740;BMP280;45234;48.148;17.128;2023-08-21T11:19:04;100471.00;;;33.54
24740;BMP280;45234;48.148;17.128;2023-08-21T11:21:32;100471.16;;;33.61
24740;BMP280;45234;48.148;17.128;2023-08-21T11:23:59;100464.06;;;33.69
24740;BMP280;45234;48.148;17.128;2023-08-21T11:26:26;100472.22;;;33.72
24740;BMP280;45234;48.148;17.128;2023-08-21T11:28:53;100474.91;;;33.72
24740;BMP280;45234;48.148;17.128;2023-08-21T11:31:22;100469.69;;;33.64
24740;BMP280;45234;48.148;17.128;2023-08-21T11:33:52;100466.47;;;33.58
24740;BMP280;45234;48.148;17.128;2023-08-21T11:36:19;100470.03;;;33.62
24740;BMP280;45234;48.148;17.128;2023-08-21T11:39:02;100473.78;;;33.58
24740;BMP280;45234;48.148;17.128;2023-08-21T11:41:55;100472.09;;;33.53
24740;BMP280;45234;48.148;17.128;2023-08-21T11:44:23;100472.03;;;33.65
24740;BMP280;45234;48.148;17.128;2023-08-21T11:46:53;100468.41;;;33.58
24740;BMP280;45234;48.148;17.128;2023-08-21T11:49:20;100458.66;;;33.53
24740;BMP280;45234;48.148;17.128;2023-08-21T11:51:49;100467.44;;;33.50
24740;BMP280;45234;48.148;17.128;2023-08-21T11:54:17;100457.69;;;33.46
24740;BMP280;45234;48.148;17.128;2023-08-21T11:56:47;100458.41;;;33.42
24740;BMP280;45234;48.148;17.128;2023-08-21T11:59:22;100457.19;;;33.40
24740;BMP280;45234;48.148;17.128;2023-08-21T12:01:52;100460.50;;;33.49
24740;BMP280;45234;48.148;17.128;2023-08-21T12:04:19;100457.53;;;33.54
24740;BMP280;45234;48.148;17.128;2023-08-21T12:06:46;100456.34;;;33.52
24740;BMP280;45234;48.148;17.128;2023-08-21T12:09:13;100452.50;;;33.53
24740;BMP280;45234;48.148;17.128;2023-08-21T12:11:40;100451.03;;;33.55
24740;BMP280;45234;48.148;17.128;2023-08-21T12:14:07;100451.03;;;33.55
24740;BMP280;45234;48.148;17.128;2023-08-21T12:16:34;100445.22;;;33.53
24740;BMP280;45234;48.148;17.128;2023-08-21T12:19:01;100447.13;;;33.53
24740;BMP280;45234;48.148;17.128;2023-08-21T12:21:29;100447.22;;;33.56
24740;BMP280;45234;48.148;17.128;2023-08-21T12:23:59;100443.84;;;33.59
24740;BMP280;45234;48.148;17.128;2023-08-21T12:26:26;100438.47;;;33.59
24740;BMP280;45234;48.148;17.128;2023-08-21T12:29:03;100439.41;;;33.67
24740;BMP280;45234;48.148;17.128;2023-08-21T12:31:30;100440.19;;;33.67
24740;BMP280;45234;48.148;17.128;2023-08-21T12:33:57;100431.25;;;33.63
24740;BMP280;45234;48.148;17.128;2023-08-21T12:36:24;100434.88;;;33.55
24740;BMP280;45234;48.148;17.128;2023-08-21T12:38:51;100432.56;;;33.54
24740;BMP280;45234;48.148;17.128;2023-08-21T12:41:18;100432.47;;;33.50
24740;BMP280;45234;48.148;17.128;2023-08-21T12:43:44;100430.66;;;33.54
24740;BMP280;45234;48.148;17.128;2023-08-21T12:46:12;100428.09;;;33.58
24740;BMP280;45234;48.148;17.128;2023-08-21T12:48:39;100426.16;;;33.58
24740;BMP280;45234;48.148;17.128;2023-08-21T12:51:06;100424.34;;;33.62
24740;BMP280;45234;48.148;17.128;2023-08-21T12:53:33;100420.50;;;33.63
24740;BMP280;45234;48.148;17.128;2023-08-21T12:56:00;100419.38;;;33.64
24740;BMP280;45234;48.148;17.128;2023-08-21T12:58:28;100415.13;;;33.63
24740;BMP280;45234;48.148;17.128;2023-08-21T13:00:55;100415.91;;;33.64
24740;BMP280;45234;48.148;17.128;2023-08-21T13:03:22;100412.00;;;33.61
24740;BMP280;45234;48.148;17.128;2023-08-21T13:05:49;100416.28;;;33.62
24740;BMP280;45234;48.148;17.128;2023-08-21T13:08:16;100409.31;;;33.61
24740;BMP280;45234;48.148;17.128;2023-08-21T13:10:43;100411.31;;;33.64
24740;BMP280;45234;48.148;17.128;2023-08-21T13:13:10;100406.09;;;33.71
24740;BMP280;45234;48.148;17.128;2023-08-21T13:15:37;100395.34;;;33.71
24740;BMP280;45234;48.148;17.128;2023-08-21T13:18:04;100399.59;;;33.72
24740;BMP280;45234;48.148;17.128;2023-08-21T13:20:31;100401.59;;;33.75
24740;BMP280;45234;48.148;17.128;2023-08-21T13:22:58;100395.47;;;33.78
24740;BMP280;45234;48.148;17.128;2023-08-21T13:25:25;100394.38;;;33.79
24740;BMP280;45234;48.148;17.128;2023-08-21T13:27:52;100389.41;;;33.81
24740;BMP280;45234;48.148;17.128;2023-08-21T13:30:19;100389.78;;;33.80
24740;BMP280;45234;48.148;17.128;2023-08-21T13:32:47;100393.94;;;33.77
24740;BMP280;45234;48.148;17.128;2023-08-21T13:35:14;100387.69;;;33.73
24740;BMP280;45234;48.148;17.128;2023-08-21T13:37:42;100386.84;;;33.69
24740;BMP280;45234;48.148;17.128;2023-08-21T13:40:10;100378.34;;;33.67
24740;BMP280;45234;48.148;17.128;2023-08-21T13:42:43;100378.34;;;33.67
24740;BMP280;45234;48.148;17.128;2023-08-21T13:45:12;100368.88;;;33.73
24740;BMP280;45234;48.148;17.128;2023-08-21T13:47:40;100378.13;;;33.76
24740;BMP280;45234;48.148;17.128;2023-08-21T13:50:10;100366.53;;;33.72
24740;BMP280;45234;48.148;17.128;2023-08-21T13:52:38;100364.69;;;33.76
24740;BMP280;45234;48.148;17.128;2023-08-21T13:55:09;100365.75;;;33.71
24740;BMP280;45234;48.148;17.128;2023-08-21T13:57:39;100365.34;;;33.69
24740;BMP280;45234;48.148;17.128;2023-08-21T14:00:09;100368.88;;;33.73
24740;BMP280;45234;48.148;17.128;2023-08-21T14:02:40;100365.84;;;33.75
24740;BMP280;45234;48.148;17.128;2023-08-21T14:05:09;100356.56;;;33.72